Sadler, Texas
Current Conditions -  °F | °C
As of 11:35 AM on Sunday 23 Nov 2014 (Local Time) from KGYI Reporting Station
Clear Clear  
Wind Chill: 67°   Ceiling: Unl
Heat Index: 67°   Visibility: 10mi
Dew Point: 56°   Wind: 20mph
Humidity: 70%   Direction: 210°SSW
Pressure: 29.44"   Gusts: 25mph
Location:  33.68°N, 96.85°W
Report Text: KGYI 231735Z AUTO 21017G22KT 10SM CLR 19/14 A2944 RMK AO2 T01930136
Loading
Personal Weather Stations






























Interactive Weather Map New forecast layout! Learn more

10-Day Weather Forecast

Advertisements
Track Severe Weather on mobile